sensor_id;sensor_type;location;lat;lon;timestamp;pressure;altitude;pressure_sealevel;temperature;humidity
57799;BME280;43626;53.866;30.298;2023-08-17T00:00:27;1030.6;;;21.9;67
57799;BME280;43626;53.866;30.298;2023-08-17T00:05:35;1030.6;;;21.9;67
57799;BME280;43626;53.866;30.298;2023-08-17T00:10:53;1030.6;;;21.9;67.1
57799;BME280;43626;53.866;30.298;2023-08-17T00:15:55;1030.7;;;21.8;66.9
57799;BME280;43626;53.866;30.298;2023-08-17T00:20:31;1030.7;;;21.8;67
57799;BME280;43626;53.866;30.298;2023-08-17T00:25:27;1030.8;;;21.7;67.3
57799;BME280;43626;53.866;30.298;2023-08-17T00:31:03;1030.9;;;21.6;67.7
57799;BME280;43626;53.866;30.298;2023-08-17T00:35:55;1030.9;;;21.5;67.9
57799;BME280;43626;53.866;30.298;2023-08-17T00:40:35;1030.9;;;21.5;67.9
57799;BME280;43626;53.866;30.298;2023-08-17T00:45:27;1031;;;21.5;67.8
57799;BME280;43626;53.866;30.298;2023-08-17T00:51:03;1031;;;21.5;67.8
57799;BME280;43626;53.866;30.298;2023-08-17T00:55:27;1031;;;21.4;68
57799;BME280;43626;53.866;30.298;2023-08-17T01:00:37;1031.1;;;21.4;68.2
57799;BME280;43626;53.866;30.298;2023-08-17T01:05:53;1031.1;;;21.3;68.1
57799;BME280;43626;53.866;30.298;2023-08-17T01:10:57;1031;;;21.3;68.1
57799;BME280;43626;53.866;30.298;2023-08-17T01:16:04;1031;;;21.3;68.1
57799;BME280;43626;53.866;30.298;2023-08-17T01:20:31;1031;;;21.2;68
57799;BME280;43626;53.866;30.298;2023-08-17T01:25:31;1031;;;21.2;68
57799;BME280;43626;53.866;30.298;2023-08-17T01:30:33;1031;;;21.2;67.8
57799;BME280;43626;53.866;30.298;2023-08-17T01:36:05;1031;;;21.2;68
57799;BME280;43626;53.866;30.298;2023-08-17T01:40:57;1031;;;21.1;67.5
57799;BME280;43626;53.866;30.298;2023-08-17T01:46:03;1031.1;;;21.1;67.5
57799;BME280;43626;53.866;30.298;2023-08-17T01:50:55;1031;;;21;67.6
57799;BME280;43626;53.866;30.298;2023-08-17T01:55:56;1031;;;20.9;67.6
57799;BME280;43626;53.866;30.298;2023-08-17T02:00:33;1031;;;20.9;67.6
57799;BME280;43626;53.866;30.298;2023-08-17T02:05:43;1031;;;20.9;67.7
57799;BME280;43626;53.866;30.298;2023-08-17T02:11:03;1031.1;;;20.9;67.8
57799;BME280;43626;53.866;30.298;2023-08-17T02:15:47;1031;;;20.8;68
57799;BME280;43626;53.866;30.298;2023-08-17T02:20:55;1031.1;;;20.8;68.3
57799;BME280;43626;53.866;30.298;2023-08-17T02:26:01;1031.1;;;20.7;68.2
57799;BME280;43626;53.866;30.298;2023-08-17T02:30:31;1031.1;;;20.7;68
57799;BME280;43626;53.866;30.298;2023-08-17T02:35:31;1031.1;;;20.7;67.9
57799;BME280;43626;53.866;30.298;2023-08-17T02:40:48;1031.3;;;20.6;67.7
57799;BME280;43626;53.866;30.298;2023-08-17T02:45:47;1031.3;;;20.6;68
57799;BME280;43626;53.866;30.298;2023-08-17T02:50:45;1031.3;;;20.5;68
57799;BME280;43626;53.866;30.298;2023-08-17T02:55:39;1031.3;;;20.6;67.8
57799;BME280;43626;53.866;30.298;2023-08-17T03:00:41;1031.3;;;20.5;67.7
57799;BME280;43626;53.866;30.298;2023-08-17T03:05:27;1031.4;;;20.5;67.7
57799;BME280;43626;53.866;30.298;2023-08-17T03:10:37;1031.4;;;20.5;68.2
57799;BME280;43626;53.866;30.298;2023-08-17T03:15:37;1031.3;;;20.5;68.4
57799;BME280;43626;53.866;30.298;2023-08-17T03:20:27;1031.3;;;20.5;68.3
57799;BME280;43626;53.866;30.298;2023-08-17T03:25:51;1031.3;;;20.6;68.3
57799;BME280;43626;53.866;30.298;2023-08-17T03:31:03;1031.3;;;20.6;68.3
57799;BME280;43626;53.866;30.298;2023-08-17T03:35:31;1031.4;;;20.7;68.5
57799;BME280;43626;53.866;30.298;2023-08-17T03:40:27;1031.4;;;20.8;68.3
57799;BME280;43626;53.866;30.298;2023-08-17T03:45:55;1031.4;;;20.8;68.1
57799;BME280;43626;53.866;30.298;2023-08-17T03:50:27;1031.4;;;20.9;68.4
57799;BME280;43626;53.866;30.298;2023-08-17T03:55:27;1031.4;;;21;68.6
57799;BME280;43626;53.866;30.298;2023-08-17T04:00:55;1031.4;;;21.1;68.9
57799;BME280;43626;53.866;30.298;2023-08-17T04:06:04;1031.3;;;21.1;69.3
57799;BME280;43626;53.866;30.298;2023-08-17T04:10:41;1031.3;;;21.2;69.7
57799;BME280;43626;53.866;30.298;2023-08-17T04:15:31;1031.3;;;21.3;70.1
57799;BME280;43626;53.866;30.298;2023-08-17T04:20:49;1031.4;;;21.4;70.2
57799;BME280;43626;53.866;30.298;2023-08-17T04:25:27;1031.4;;;21.5;70.2
57799;BME280;43626;53.866;30.298;2023-08-17T04:30:39;1031.4;;;21.6;70.3
57799;BME280;43626;53.866;30.298;2023-08-17T04:35:46;1031.4;;;21.7;70.4
57799;BME280;43626;53.866;30.298;2023-08-17T04:40:41;1031.4;;;21.9;70.1
57799;BME280;43626;53.866;30.298;2023-08-17T04:45:27;1031.5;;;22;69.9
57799;BME280;43626;53.866;30.298;2023-08-17T04:50:37;1031.4;;;22.1;69.8
57799;BME280;43626;53.866;30.298;2023-08-17T04:56:03;1031.4;;;22.3;69.5
57799;BME280;43626;53.866;30.298;2023-08-17T05:00:53;1031.4;;;22.5;68.8
57799;BME280;43626;53.866;30.298;2023-08-17T05:05:39;1031.4;;;22.6;68.3
57799;BME280;43626;53.866;30.298;2023-08-17T05:10:27;1031.4;;;22.8;67.1
57799;BME280;43626;53.866;30.298;2023-08-17T05:16:01;1031.4;;;22.8;66.4
57799;BME280;43626;53.866;30.298;2023-08-17T05:20:59;1031.3;;;22.9;66
57799;BME280;43626;53.866;30.298;2023-08-17T05:25:37;1031.3;;;23.1;65.5
57799;BME280;43626;53.866;30.298;2023-08-17T05:30:53;1031.3;;;23.2;65.2
57799;BME280;43626;53.866;30.298;2023-08-17T05:35:55;1031.4;;;23.4;64.6
57799;BME280;43626;53.866;30.298;2023-08-17T05:41:03;1031.3;;;23.5;64.1
57799;BME280;43626;53.866;30.298;2023-08-17T05:45:53;1031.3;;;23.6;63.9
57799;BME280;43626;53.866;30.298;2023-08-17T05:50:27;1031.3;;;23.8;63.7
57799;BME280;43626;53.866;30.298;2023-08-17T05:55:27;1031.3;;;23.9;63.4
57799;BME280;43626;53.866;30.298;2023-08-17T06:00:33;1031.2;;;23.9;62.9
57799;BME280;43626;53.866;30.298;2023-08-17T06:06:05;1031.2;;;24;62.1
57799;BME280;43626;53.866;30.298;2023-08-17T06:11:03;1031.2;;;24.1;60.6
57799;BME280;43626;53.866;30.298;2023-08-17T06:16:05;1031.2;;;24.3;60.3
57799;BME280;43626;53.866;30.298;2023-08-17T06:20:53;1031.2;;;24.4;60.1
57799;BME280;43626;53.866;30.298;2023-08-17T06:25:31;1031.2;;;24.5;60.5
57799;BME280;43626;53.866;30.298;2023-08-17T06:30:54;1031.2;;;24.7;60.8
57799;BME280;43626;53.866;30.298;2023-08-17T06:36:04;1031.2;;;24.8;60.1
57799;BME280;43626;53.866;30.298;2023-08-17T06:40:47;1031.2;;;24.9;59.7
57799;BME280;43626;53.866;30.298;2023-08-17T06:45:39;1031.3;;;25;59.6
57799;BME280;43626;53.866;30.298;2023-08-17T06:51:03;1031.3;;;25.1;58.8
57799;BME280;43626;53.866;30.298;2023-08-17T06:55:27;1031.4;;;25.3;59.1
57799;BME280;43626;53.866;30.298;2023-08-17T07:00:27;1031.4;;;25.4;58.6
57799;BME280;43626;53.866;30.298;2023-08-17T07:05:27;1031.3;;;25.5;58
57799;BME280;43626;53.866;30.298;2023-08-17T07:10:47;1031.3;;;25.6;57.4
57799;BME280;43626;53.866;30.298;2023-08-17T07:15:47;1031.3;;;25.8;57.1
57799;BME280;43626;53.866;30.298;2023-08-17T07:21:01;1031.3;;;25.9;55.7
57799;BME280;43626;53.866;30.298;2023-08-17T07:25:41;1031.3;;;26;55
57799;BME280;43626;53.866;30.298;2023-08-17T07:30:31;1031.3;;;26.2;56.7
57799;BME280;43626;53.866;30.298;2023-08-17T07:35:27;1031.3;;;26.4;56.1
57799;BME280;43626;53.866;30.298;2023-08-17T07:40:37;1031.3;;;26.5;55.2
57799;BME280;43626;53.866;30.298;2023-08-17T07:45:53;1031.2;;;26.6;55.4
57799;BME280;43626;53.866;30.298;2023-08-17T07:50:48;1031.3;;;26.7;54.7
57799;BME280;43626;53.866;30.298;2023-08-17T07:56:03;1031.3;;;26.8;54.4
57799;BME280;43626;53.866;30.298;2023-08-17T08:00:27;1031.3;;;26.9;53.9
57799;BME280;43626;53.866;30.298;2023-08-17T08:05:31;1031.3;;;27;52.8
57799;BME280;43626;53.866;30.298;2023-08-17T08:10:47;1031.3;;;27.1;52.3
57799;BME280;43626;53.866;30.298;2023-08-17T08:16:03;1031.2;;;27.2;51.4
57799;BME280;43626;53.866;30.298;2023-08-17T08:20:39;1031.2;;;27.4;52.1
57799;BME280;43626;53.866;30.298;2023-08-17T08:25:55;1031.2;;;27.5;51
57799;BME280;43626;53.866;30.298;2023-08-17T08:31:03;1031.2;;;27.6;50.9
57799;BME280;43626;53.866;30.298;2023-08-17T08:36:03;1031.2;;;27.7;50.4
57799;BME280;43626;53.866;30.298;2023-08-17T08:40:46;1031.2;;;27.8;50
57799;BME280;43626;53.866;30.298;2023-08-17T08:46:04;1031.3;;;27.9;50.4
57799;BME280;43626;53.866;30.298;2023-08-17T08:50:34;1031.3;;;28;50.8
57799;BME280;43626;53.866;30.298;2023-08-17T08:55:42;1031.2;;;28.1;50.5
57799;BME280;43626;53.866;30.298;2023-08-17T09:00:32;1031.2;;;28.1;50.3
57799;BME280;43626;53.866;30.298;2023-08-17T09:05:55;1031.1;;;28.2;50.6
57799;BME280;43626;53.866;30.298;2023-08-17T09:10:28;1031.1;;;28.3;49.4
57799;BME280;43626;53.866;30.298;2023-08-17T09:15:31;1031.1;;;28.4;48.8
57799;BME280;43626;53.866;30.298;2023-08-17T09:21:02;1031.1;;;28.5;49.6
57799;BME280;43626;53.866;30.298;2023-08-17T09:25:56;1031.1;;;28.5;49.1
57799;BME280;43626;53.866;30.298;2023-08-17T09:30:27;1031;;;28.6;49.9
57799;BME280;43626;53.866;30.298;2023-08-17T09:35:46;1031;;;28.8;49.8
57799;BME280;43626;53.866;30.298;2023-08-17T09:40:56;1030.9;;;29;49
57799;BME280;43626;53.866;30.298;2023-08-17T09:45:35;1030.9;;;29;48.8
57799;BME280;43626;53.866;30.298;2023-08-17T09:50:37;1030.9;;;29.1;48.6
57799;BME280;43626;53.866;30.298;2023-08-17T09:55:54;1030.9;;;29.1;48.4
57799;BME280;43626;53.866;30.298;2023-08-17T10:00:55;1030.9;;;29.2;48
57799;BME280;43626;53.866;30.298;2023-08-17T10:06:04;1030.9;;;29.3;48.4
57799;BME280;43626;53.866;30.298;2023-08-17T10:10:53;1030.9;;;29.3;48.5
57799;BME280;43626;53.866;30.298;2023-08-17T10:15:48;1030.9;;;29.4;49
57799;BME280;43626;53.866;30.298;2023-08-17T10:20:35;1030.9;;;29.5;46.8
57799;BME280;43626;53.866;30.298;2023-08-17T10:26:03;1030.9;;;29.6;46.8
57799;BME280;43626;53.866;30.298;2023-08-17T10:30:57;1030.9;;;29.6;47.8
57799;BME280;43626;53.866;30.298;2023-08-17T10:36:04;1030.9;;;29.7;47.3
57799;BME280;43626;53.866;30.298;2023-08-17T10:41:08;1030.8;;;29.9;47
57799;BME280;43626;53.866;30.298;2023-08-17T10:45:48;1030.9;;;29.9;46.9
57799;BME280;43626;53.866;30.298;2023-08-17T10:50:28;1030.9;;;29.9;46.9
57799;BME280;43626;53.866;30.298;2023-08-17T10:55:56;1030.9;;;29.9;46.2
57799;BME280;43626;53.866;30.298;2023-08-17T11:01:03;1030.8;;;29.9;45.7
57799;BME280;43626;53.866;30.298;2023-08-17T11:05:48;1030.7;;;29.9;45.3
57799;BME280;43626;53.866;30.298;2023-08-17T11:11:04;1030.7;;;29.7;45.6
57799;BME280;43626;53.866;30.298;2023-08-17T11:16:04;1030.7;;;29.4;45.7
57799;BME280;43626;53.866;30.298;2023-08-17T11:20:27;1030.7;;;29.1;45.8
57799;BME280;43626;53.866;30.298;2023-08-17T11:25:28;1030.7;;;29;46.9
57799;BME280;43626;53.866;30.298;2023-08-17T11:30:34;1030.7;;;29.2;46.6
57799;BME280;43626;53.866;30.298;2023-08-17T11:36:04;1030.7;;;29.2;46.6
57799;BME280;43626;53.866;30.298;2023-08-17T11:40:48;1030.6;;;29.5;46.6
57799;BME280;43626;53.866;30.298;2023-08-17T11:45:48;1030.6;;;29.7;46
57799;BME280;43626;53.866;30.298;2023-08-17T11:50:54;1030.5;;;29.9;45.9
57799;BME280;43626;53.866;30.298;2023-08-17T11:55:27;1030.5;;;30.1;45
57799;BME280;43626;53.866;30.298;2023-08-17T12:00:28;1030.5;;;30.3;44.9
57799;BME280;43626;53.866;30.298;2023-08-17T12:05:33;1030.5;;;30.5;43.6
57799;BME280;43626;53.866;30.298;2023-08-17T12:10:28;1030.5;;;30.5;44.1
57799;BME280;43626;53.866;30.298;2023-08-17T12:15:37;1030.4;;;30.5;43.9
57799;BME280;43626;53.866;30.298;2023-08-17T12:21:06;1030.4;;;30.5;43.7
57799;BME280;43626;53.866;30.298;2023-08-17T12:25:43;1030.3;;;30.2;43.9
57799;BME280;43626;53.866;30.298;2023-08-17T12:30:31;1030.3;;;30;43.3
57799;BME280;43626;53.866;30.298;2023-08-17T12:35:41;1030.2;;;29.9;43.3
57799;BME280;43626;53.866;30.298;2023-08-17T12:40:54;1030.3;;;30.2;43.2
57799;BME280;43626;53.866;30.298;2023-08-17T12:45:56;1030.3;;;30.3;43.6
57799;BME280;43626;53.866;30.298;2023-08-17T12:50:55;1030.2;;;30.4;43.6
57799;BME280;43626;53.866;30.298;2023-08-17T12:56:02;1030.2;;;30.5;43.3
57799;BME280;43626;53.866;30.298;2023-08-17T13:00:30;1030.2;;;30.2;42.9
57799;BME280;43626;53.866;30.298;2023-08-17T13:05:28;1030.1;;;30.3;42.8
57799;BME280;43626;53.866;30.298;2023-08-17T13:10:50;1030.1;;;30.4;43.1
57799;BME280;43626;53.866;30.298;2023-08-17T13:15:31;1030.1;;;30.6;41.7
57799;BME280;43626;53.866;30.298;2023-08-17T13:20:28;1030.1;;;30.3;41.9
57799;BME280;43626;53.866;30.298;2023-08-17T13:25:41;1030.1;;;30.4;42.6
57799;BME280;43626;53.866;30.298;2023-08-17T13:31:04;1030.1;;;30.6;42.3
57799;BME280;43626;53.866;30.298;2023-08-17T13:35:44;1030.1;;;30.8;42.3
57799;BME280;43626;53.866;30.298;2023-08-17T13:40:56;1030;;;30.9;42.4
57799;BME280;43626;53.866;30.298;2023-08-17T13:46:00;1030;;;30.8;42.6
57799;BME280;43626;53.866;30.298;2023-08-17T13:51:04;1030;;;30.4;43
57799;BME280;43626;53.866;30.298;2023-08-17T13:55:28;1029.9;;;30.3;43.4
57799;BME280;43626;53.866;30.298;2023-08-17T14:00:28;1029.9;;;30.3;43.3
57799;BME280;43626;53.866;30.298;2023-08-17T14:06:04;1029.8;;;30.4;42.6
57799;BME280;43626;53.866;30.298;2023-08-17T14:10:36;1029.8;;;30.5;41.9
57799;BME280;43626;53.866;30.298;2023-08-17T14:15:38;1029.8;;;30.7;42.5
57799;BME280;43626;53.866;30.298;2023-08-17T14:20:54;1029.8;;;30.9;42.3
57799;BME280;43626;53.866;30.298;2023-08-17T14:25:56;1029.8;;;31;41.4
57799;BME280;43626;53.866;30.298;2023-08-17T14:31:04;1029.8;;;31.1;41.1
57799;BME280;43626;53.866;30.298;2023-08-17T14:35:42;1029.8;;;31.1;41.5
57799;BME280;43626;53.866;30.298;2023-08-17T14:40:32;1029.8;;;31.1;41.5
57799;BME280;43626;53.866;30.298;2023-08-17T14:45:28;1029.8;;;31.1;41.4
57799;BME280;43626;53.866;30.298;2023-08-17T14:51:04;1029.8;;;31.1;41
57799;BME280;43626;53.866;30.298;2023-08-17T14:55:54;1029.7;;;31.2;40.3
57799;BME280;43626;53.866;30.298;2023-08-17T15:00:30;1029.6;;;31.2;39.1
57799;BME280;43626;53.866;30.298;2023-08-17T15:06:04;1029.6;;;31.2;39.1
57799;BME280;43626;53.866;30.298;2023-08-17T15:10:54;1029.5;;;31.2;39.3
57799;BME280;43626;53.866;30.298;2023-08-17T15:15:28;1029.5;;;31.2;39.9
57799;BME280;43626;53.866;30.298;2023-08-17T15:20:40;1029.5;;;31.2;40.2
57799;BME280;43626;53.866;30.298;2023-08-17T15:26:04;1029.5;;;31.2;40.1
57799;BME280;43626;53.866;30.298;2023-08-17T15:31:04;1029.5;;;31.3;40.1
57799;BME280;43626;53.866;30.298;2023-08-17T15:35:56;1029.5;;;31.3;40.1
57799;BME280;43626;53.866;30.298;2023-08-17T15:41:06;1029.5;;;31.4;40
57799;BME280;43626;53.866;30.298;2023-08-17T15:45:54;1029.5;;;31.5;39.7
57799;BME280;43626;53.866;30.298;2023-08-17T15:50:28;1029.5;;;31.5;39.6
57799;BME280;43626;53.866;30.298;2023-08-17T15:55:56;1029.5;;;31.6;39.6
57799;BME280;43626;53.866;30.298;2023-08-17T16:01:06;1029.5;;;31.7;39.8
57799;BME280;43626;53.866;30.298;2023-08-17T16:05:50;1029.5;;;31.9;39.6
57799;BME280;43626;53.866;30.298;2023-08-17T16:11:06;1029.5;;;32.2;39.1
57799;BME280;43626;53.866;30.298;2023-08-17T16:16:08;1029.5;;;32.5;38.7
57799;BME280;43626;53.866;30.298;2023-08-17T16:20:32;1029.5;;;32.8;38.7
57799;BME280;43626;53.866;30.298;2023-08-17T16:25:44;1029.5;;;33;38.4
57799;BME280;43626;53.866;30.298;2023-08-17T16:30:28;1029.5;;;33.1;38.1
57799;BME280;43626;53.866;30.298;2023-08-17T16:35:52;1029.5;;;33.2;38.1
57799;BME280;43626;53.866;30.298;2023-08-17T16:40:50;1029.5;;;32.9;38.3
57799;BME280;43626;53.866;30.298;2023-08-17T16:46:08;1029.6;;;32.3;39.1
57799;BME280;43626;53.866;30.298;2023-08-17T16:50:44;1029.6;;;31.7;40.7
57799;BME280;43626;53.866;30.298;2023-08-17T16:55:36;1029.7;;;31.2;42.6
57799;BME280;43626;53.866;30.298;2023-08-17T17:00:28;1029.7;;;30.8;44.3
57799;BME280;43626;53.866;30.298;2023-08-17T17:05:40;1029.7;;;30.4;45.5
57799;BME280;43626;53.866;30.298;2023-08-17T17:10:28;1029.7;;;30;46.4
57799;BME280;43626;53.866;30.298;2023-08-17T17:15:42;1029.7;;;29.6;47.5
57799;BME280;43626;53.866;30.298;2023-08-17T17:21:10;1029.7;;;29.3;48.7
57799;BME280;43626;53.866;30.298;2023-08-17T17:25:56;1029.7;;;29;49.9
57799;BME280;43626;53.866;30.298;2023-08-17T17:30:32;1029.6;;;28.7;50.7
57799;BME280;43626;53.866;30.298;2023-08-17T17:35:50;1029.6;;;28.5;51.6
57799;BME280;43626;53.866;30.298;2023-08-17T17:40:28;1029.7;;;28.2;53.6
57799;BME280;43626;53.866;30.298;2023-08-17T17:45:42;1029.7;;;27.9;54.7
57799;BME280;43626;53.866;30.298;2023-08-17T17:50:58;1029.7;;;27.7;55.2
57799;BME280;43626;53.866;30.298;2023-08-17T17:56:09;1029.7;;;27.5;55.8
57799;BME280;43626;53.866;30.298;2023-08-17T18:00:28;1029.8;;;27.3;56.4
57799;BME280;43626;53.866;30.298;2023-08-17T18:05:43;1029.8;;;27.1;56.2
57799;BME280;43626;53.866;30.298;2023-08-17T18:11:06;1029.8;;;27;56.4
57799;BME280;43626;53.866;30.298;2023-08-17T18:15:40;1029.7;;;26.9;56.7
57799;BME280;43626;53.866;30.298;2023-08-17T18:20:42;1029.8;;;26.7;57
57799;BME280;43626;53.866;30.298;2023-08-17T18:25:42;1029.9;;;26.6;57.3
57799;BME280;43626;53.866;30.298;2023-08-17T18:30:58;1029.9;;;26.5;57.6
57799;BME280;43626;53.866;30.298;2023-08-17T18:35:28;1029.9;;;26.4;58.3
57799;BME280;43626;53.866;30.298;2023-08-17T18:40:28;1029.9;;;26.2;59.4
57799;BME280;43626;53.866;30.298;2023-08-17T18:46:08;1030;;;26.1;60.1
57799;BME280;43626;53.866;30.298;2023-08-17T18:50:43;1030;;;26;60.3
57799;BME280;43626;53.866;30.298;2023-08-17T18:56:08;1030;;;25.9;60.8
57799;BME280;43626;53.866;30.298;2023-08-17T19:00:46;1030;;;25.8;61
57799;BME280;43626;53.866;30.298;2023-08-17T19:05:42;1030;;;25.8;60.8
57799;BME280;43626;53.866;30.298;2023-08-17T19:10:52;1029.9;;;25.7;61
57799;BME280;43626;53.866;30.298;2023-08-17T19:15:58;1029.9;;;25.6;61.1
57799;BME280;43626;53.866;30.298;2023-08-17T19:20:56;1029.9;;;25.6;61.2
57799;BME280;43626;53.866;30.298;2023-08-17T19:25:56;1029.9;;;25.5;61.5
57799;BME280;43626;53.866;30.298;2023-08-17T19:31:06;1029.9;;;25.4;61.7
57799;BME280;43626;53.866;30.298;2023-08-17T19:35:56;1029.9;;;25.3;62.3
57799;BME280;43626;53.866;30.298;2023-08-17T19:40:28;1029.9;;;25.2;62.6
57799;BME280;43626;53.866;30.298;2023-08-17T19:45:40;1030;;;25.1;63.1
57799;BME280;43626;53.866;30.298;2023-08-17T19:51:08;1029.9;;;24.9;63.5
57799;BME280;43626;53.866;30.298;2023-08-17T19:56:06;1029.9;;;24.8;63.7
57799;BME280;43626;53.866;30.298;2023-08-17T20:01:03;1030;;;24.8;63.7
57799;BME280;43626;53.866;30.298;2023-08-17T20:06:06;1030;;;24.8;63.5
57799;BME280;43626;53.866;30.298;2023-08-17T20:10:56;1030.1;;;24.7;63.6
57799;BME280;43626;53.866;30.298;2023-08-17T20:15:36;1030.1;;;24.7;63.6
57799;BME280;43626;53.866;30.298;2023-08-17T20:20:56;1030.1;;;24.6;63.6
57799;BME280;43626;53.866;30.298;2023-08-17T20:26:06;1030.2;;;24.6;63.6
57799;BME280;43626;53.866;30.298;2023-08-17T20:30:55;1030.2;;;24.6;63.6
57799;BME280;43626;53.866;30.298;2023-08-17T20:35:56;1030.2;;;24.5;63.8
57799;BME280;43626;53.866;30.298;2023-08-17T20:41:06;1030.2;;;24.5;64.2
57799;BME280;43626;53.866;30.298;2023-08-17T20:45:28;1030.2;;;24.4;64.8
57799;BME280;43626;53.866;30.298;2023-08-17T20:50:34;1030.3;;;24.4;65.1
57799;BME280;43626;53.866;30.298;2023-08-17T20:55:28;1030.3;;;24.3;65.3
57799;BME280;43626;53.866;30.298;2023-08-17T21:00:50;1030.4;;;24.2;65.4
57799;BME280;43626;53.866;30.298;2023-08-17T21:06:08;1030.3;;;24.2;65
57799;BME280;43626;53.866;30.298;2023-08-17T21:10:52;1030.3;;;24.1;64.7
57799;BME280;43626;53.866;30.298;2023-08-17T21:15:46;1030.4;;;24.1;64.6
57799;BME280;43626;53.866;30.298;2023-08-17T21:20:32;1030.4;;;24;64.6
57799;BME280;43626;53.866;30.298;2023-08-17T21:26:08;1030.4;;;24;64.6
57799;BME280;43626;53.866;30.298;2023-08-17T21:30:28;1030.4;;;23.9;64.6
57799;BME280;43626;53.866;30.298;2023-08-17T21:35:52;1030.4;;;23.9;64.8
57799;BME280;43626;53.866;30.298;2023-08-17T21:40:48;1030.4;;;23.8;65.2
57799;BME280;43626;53.866;30.298;2023-08-17T21:46:06;1030.4;;;23.7;65.5
57799;BME280;43626;53.866;30.298;2023-08-17T21:50:42;1030.5;;;23.7;65.5
57799;BME280;43626;53.866;30.298;2023-08-17T21:55:32;1030.5;;;23.7;65.7
57799;BME280;43626;53.866;30.298;2023-08-17T22:00:50;1030.5;;;23.6;65.6
57799;BME280;43626;53.866;30.298;2023-08-17T22:05:40;1030.5;;;23.6;65.4
57799;BME280;43626;53.866;30.298;2023-08-17T22:10:38;1030.5;;;23.6;65.4
57799;BME280;43626;53.866;30.298;2023-08-17T22:15:54;1030.5;;;23.6;65.3
57799;BME280;43626;53.866;30.298;2023-08-17T22:21:08;1030.5;;;23.5;65.2
57799;BME280;43626;53.866;30.298;2023-08-17T22:25:28;1030.6;;;23.5;65.1
57799;BME280;43626;53.866;30.298;2023-08-17T22:30:28;1030.6;;;23.5;65.1
57799;BME280;43626;53.866;30.298;2023-08-17T22:36:06;1030.5;;;23.4;65.1
57799;BME280;43626;53.866;30.298;2023-08-17T22:40:30;1030.5;;;23.4;65.4
57799;BME280;43626;53.866;30.298;2023-08-17T22:45:42;1030.5;;;23.3;65.4
57799;BME280;43626;53.866;30.298;2023-08-17T22:50:56;1030.5;;;23.3;65.2
57799;BME280;43626;53.866;30.298;2023-08-17T22:55:58;1030.5;;;23.2;65.3
57799;BME280;43626;53.866;30.298;2023-08-17T23:00:36;1030.5;;;23.1;65.4
57799;BME280;43626;53.866;30.298;2023-08-17T23:05:28;1030.6;;;23.1;65.4
57799;BME280;43626;53.866;30.298;2023-08-17T23:11:04;1030.6;;;23.1;65.5
57799;BME280;43626;53.866;30.298;2023-08-17T23:16:02;1030.6;;;23.1;65.4
57799;BME280;43626;53.866;30.298;2023-08-17T23:21:06;1030.7;;;23;65.4
57799;BME280;43626;53.866;30.298;2023-08-17T23:25:46;1030.7;;;23;65.4
57799;BME280;43626;53.866;30.298;2023-08-17T23:31:08;1030.8;;;22.9;65.4
57799;BME280;43626;53.866;30.298;2023-08-17T23:35:32;1030.8;;;22.9;65.6
57799;BME280;43626;53.866;30.298;2023-08-17T23:40:28;1030.8;;;22.8;66.1
57799;BME280;43626;53.866;30.298;2023-08-17T23:45:30;1030.8;;;22.7;66.4
57799;BME280;43626;53.866;30.298;2023-08-17T23:50:56;1030.8;;;22.7;66.6
57799;BME280;43626;53.866;30.298;2023-08-17T23:56:08;1030.8;;;22.6;66.5
